sensor_id;sensor_type;location;lat;lon;timestamp;P1;durP1;ratioP1;P2;durP2;ratioP2
16029;SDS011;34770;49.272;11.070;2022-12-04T00:00:01;15.93;;;10.27;;
16029;SDS011;34770;49.272;11.070;2022-12-04T00:02:29;13.83;;;9.63;;
16029;SDS011;34770;49.272;11.070;2022-12-04T00:04:54;16.60;;;10.50;;
16029;SDS011;34770;49.272;11.070;2022-12-04T00:07:20;18.00;;;10.50;;
16029;SDS011;34770;49.272;11.070;2022-12-04T00:09:45;16.73;;;10.80;;
16029;SDS011;34770;49.272;11.070;2022-12-04T00:12:11;14.90;;;11.13;;
16029;SDS011;34770;49.272;11.070;2022-12-04T00:14:36;15.60;;;10.33;;
16029;SDS011;34770;49.272;11.070;2022-12-04T00:17:01;17.00;;;10.67;;
16029;SDS011;34770;49.272;11.070;2022-12-04T00:19:27;16.87;;;11.10;;
16029;SDS011;34770;49.272;11.070;2022-12-04T00:21:52;15.07;;;9.93;;
16029;SDS011;34770;49.272;11.070;2022-12-04T00:24:18;15.50;;;10.87;;
16029;SDS011;34770;49.272;11.070;2022-12-04T00:26:43;18.03;;;11.10;;
16029;SDS011;34770;49.272;11.070;2022-12-04T00:29:09;13.70;;;9.90;;
16029;SDS011;34770;49.272;11.070;2022-12-04T00:31:34;14.50;;;10.40;;
16029;SDS011;34770;49.272;11.070;2022-12-04T00:33:59;17.57;;;10.77;;
16029;SDS011;34770;49.272;11.070;2022-12-04T00:36:26;13.30;;;10.27;;
16029;SDS011;34770;49.272;11.070;2022-12-04T00:38:53;13.93;;;10.27;;
16029;SDS011;34770;49.272;11.070;2022-12-04T00:41:20;16.20;;;10.63;;
16029;SDS011;34770;49.272;11.070;2022-12-04T00:43:47;17.80;;;11.13;;
16029;SDS011;34770;49.272;11.070;2022-12-04T00:46:13;16.43;;;11.07;;
16029;SDS011;34770;49.272;11.070;2022-12-04T00:48:39;15.27;;;10.80;;
16029;SDS011;34770;49.272;11.070;2022-12-04T00:51:07;18.30;;;10.67;;
16029;SDS011;34770;49.272;11.070;2022-12-04T00:53:35;16.00;;;9.67;;
16029;SDS011;34770;49.272;11.070;2022-12-04T00:56:05;14.20;;;9.50;;
16029;SDS011;34770;49.272;11.070;2022-12-04T00:58:31;14.00;;;11.23;;
16029;SDS011;34770;49.272;11.070;2022-12-04T01:01:04;15.93;;;10.27;;
16029;SDS011;34770;49.272;11.070;2022-12-04T01:03:35;15.63;;;10.50;;
16029;SDS011;34770;49.272;11.070;2022-12-04T01:06:01;16.07;;;9.57;;
16029;SDS011;34770;49.272;11.070;2022-12-04T01:08:26;15.97;;;10.23;;
16029;SDS011;34770;49.272;11.070;2022-12-04T01:10:52;15.23;;;9.43;;
16029;SDS011;34770;49.272;11.070;2022-12-04T01:13:17;13.03;;;8.90;;
16029;SDS011;34770;49.272;11.070;2022-12-04T01:15:43;14.77;;;8.47;;
16029;SDS011;34770;49.272;11.070;2022-12-04T01:18:12;13.70;;;9.73;;
16029;SDS011;34770;49.272;11.070;2022-12-04T01:20:38;14.03;;;9.57;;
16029;SDS011;34770;49.272;11.070;2022-12-04T01:23:03;13.10;;;9.80;;
16029;SDS011;34770;49.272;11.070;2022-12-04T01:25:28;12.83;;;9.33;;
16029;SDS011;34770;49.272;11.070;2022-12-04T01:27:54;15.57;;;10.73;;
16029;SDS011;34770;49.272;11.070;2022-12-04T01:30:20;16.53;;;9.87;;
16029;SDS011;34770;49.272;11.070;2022-12-04T01:32:45;13.43;;;9.40;;
16029;SDS011;34770;49.272;11.070;2022-12-04T01:35:11;15.43;;;9.77;;
16029;SDS011;34770;49.272;11.070;2022-12-04T01:37:37;14.40;;;9.93;;
16029;SDS011;34770;49.272;11.070;2022-12-04T01:40:03;17.37;;;10.53;;
16029;SDS011;34770;49.272;11.070;2022-12-04T01:42:29;12.80;;;9.17;;
16029;SDS011;34770;49.272;11.070;2022-12-04T01:48:00;13.40;;;8.63;;
16029;SDS011;34770;49.272;11.070;2022-12-04T01:50:40;15.23;;;9.80;;
16029;SDS011;34770;49.272;11.070;2022-12-04T01:53:06;12.00;;;8.67;;
16029;SDS011;34770;49.272;11.070;2022-12-04T01:55:32;11.80;;;8.77;;
16029;SDS011;34770;49.272;11.070;2022-12-04T01:57:58;13.07;;;8.83;;
16029;SDS011;34770;49.272;11.070;2022-12-04T02:00:26;13.67;;;9.17;;
16029;SDS011;34770;49.272;11.070;2022-12-04T02:02:51;14.17;;;9.50;;
16029;SDS011;34770;49.272;11.070;2022-12-04T02:05:18;14.73;;;10.07;;
16029;SDS011;34770;49.272;11.070;2022-12-04T02:07:46;15.60;;;9.50;;
16029;SDS011;34770;49.272;11.070;2022-12-04T02:10:14;13.20;;;9.87;;
16029;SDS011;34770;49.272;11.070;2022-12-04T02:12:50;12.80;;;9.20;;
16029;SDS011;34770;49.272;11.070;2022-12-04T02:18:49;15.63;;;10.47;;
16029;SDS011;34770;49.272;11.070;2022-12-04T02:21:13;14.27;;;9.37;;
16029;SDS011;34770;49.272;11.070;2022-12-04T02:27:01;11.53;;;7.60;;
16029;SDS011;34770;49.272;11.070;2022-12-04T02:32:18;13.63;;;9.27;;
16029;SDS011;34770;49.272;11.070;2022-12-04T02:34:54;14.47;;;10.00;;
16029;SDS011;34770;49.272;11.070;2022-12-04T02:45:28;13.30;;;8.40;;
16029;SDS011;34770;49.272;11.070;2022-12-04T02:47:56;11.70;;;8.53;;
16029;SDS011;34770;49.272;11.070;2022-12-04T02:50:25;12.40;;;9.00;;
16029;SDS011;34770;49.272;11.070;2022-12-04T02:52:59;12.20;;;7.60;;
16029;SDS011;34770;49.272;11.070;2022-12-04T02:55:48;14.37;;;9.20;;
16029;SDS011;34770;49.272;11.070;2022-12-04T02:58:21;12.63;;;8.73;;
16029;SDS011;34770;49.272;11.070;2022-12-04T03:00:52;13.13;;;9.77;;
16029;SDS011;34770;49.272;11.070;2022-12-04T03:03:25;12.67;;;8.63;;
16029;SDS011;34770;49.272;11.070;2022-12-04T03:06:01;13.57;;;9.93;;
16029;SDS011;34770;49.272;11.070;2022-12-04T03:08:33;12.67;;;8.97;;
16029;SDS011;34770;49.272;11.070;2022-12-04T03:11:03;13.67;;;8.40;;
16029;SDS011;34770;49.272;11.070;2022-12-04T03:13:37;11.97;;;8.37;;
16029;SDS011;34770;49.272;11.070;2022-12-04T03:16:09;14.00;;;10.23;;
16029;SDS011;34770;49.272;11.070;2022-12-04T03:18:57;14.70;;;9.50;;
16029;SDS011;34770;49.272;11.070;2022-12-04T03:21:28;14.47;;;9.37;;
16029;SDS011;34770;49.272;11.070;2022-12-04T03:26:40;19.67;;;10.83;;
16029;SDS011;34770;49.272;11.070;2022-12-04T03:29:17;13.67;;;9.00;;
16029;SDS011;34770;49.272;11.070;2022-12-04T03:37:14;14.73;;;10.17;;
16029;SDS011;34770;49.272;11.070;2022-12-04T03:39:51;11.80;;;8.43;;
16029;SDS011;34770;49.272;11.070;2022-12-04T03:42:25;13.97;;;10.10;;
16029;SDS011;34770;49.272;11.070;2022-12-04T03:45:00;17.07;;;10.20;;
16029;SDS011;34770;49.272;11.070;2022-12-04T03:47:53;14.20;;;10.10;;
16029;SDS011;34770;49.272;11.070;2022-12-04T03:50:32;13.43;;;9.40;;
16029;SDS011;34770;49.272;11.070;2022-12-04T03:53:11;17.10;;;11.10;;
16029;SDS011;34770;49.272;11.070;2022-12-04T03:55:45;13.87;;;9.37;;
16029;SDS011;34770;49.272;11.070;2022-12-04T03:58:21;12.17;;;8.83;;
16029;SDS011;34770;49.272;11.070;2022-12-04T04:00:52;15.37;;;9.43;;
16029;SDS011;34770;49.272;11.070;2022-12-04T04:03:21;14.30;;;8.87;;
16029;SDS011;34770;49.272;11.070;2022-12-04T04:05:53;13.80;;;8.40;;
16029;SDS011;34770;49.272;11.070;2022-12-04T04:08:25;13.10;;;8.80;;
16029;SDS011;34770;49.272;11.070;2022-12-04T04:10:59;13.50;;;9.87;;
16029;SDS011;34770;49.272;11.070;2022-12-04T04:13:34;12.40;;;8.50;;
16029;SDS011;34770;49.272;11.070;2022-12-04T04:16:28;12.27;;;9.10;;
16029;SDS011;34770;49.272;11.070;2022-12-04T04:19:16;14.67;;;10.13;;
16029;SDS011;34770;49.272;11.070;2022-12-04T04:22:03;11.77;;;9.17;;
16029;SDS011;34770;49.272;11.070;2022-12-04T04:24:53;11.93;;;8.60;;
16029;SDS011;34770;49.272;11.070;2022-12-04T04:27:21;10.87;;;8.43;;
16029;SDS011;34770;49.272;11.070;2022-12-04T04:29:47;12.17;;;8.97;;
16029;SDS011;34770;49.272;11.070;2022-12-04T04:32:32;13.50;;;9.47;;
16029;SDS011;34770;49.272;11.070;2022-12-04T04:37:42;12.13;;;8.50;;
16029;SDS011;34770;49.272;11.070;2022-12-04T04:40:32;15.43;;;9.60;;
16029;SDS011;34770;49.272;11.070;2022-12-04T04:43:04;12.53;;;8.70;;
16029;SDS011;34770;49.272;11.070;2022-12-04T04:45:39;11.77;;;8.80;;
16029;SDS011;34770;49.272;11.070;2022-12-04T04:48:29;15.07;;;8.30;;
16029;SDS011;34770;49.272;11.070;2022-12-04T04:50:59;10.37;;;8.37;;
16029;SDS011;34770;49.272;11.070;2022-12-04T04:53:29;12.37;;;9.13;;
16029;SDS011;34770;49.272;11.070;2022-12-04T04:56:00;13.27;;;9.17;;
16029;SDS011;34770;49.272;11.070;2022-12-04T04:58:26;12.50;;;9.17;;
16029;SDS011;34770;49.272;11.070;2022-12-04T05:00:55;11.13;;;7.83;;
16029;SDS011;34770;49.272;11.070;2022-12-04T05:03:24;10.70;;;7.97;;
16029;SDS011;34770;49.272;11.070;2022-12-04T05:05:50;12.53;;;9.43;;
16029;SDS011;34770;49.272;11.070;2022-12-04T05:08:15;12.00;;;8.93;;
16029;SDS011;34770;49.272;11.070;2022-12-04T05:10:40;11.87;;;8.47;;
16029;SDS011;34770;49.272;11.070;2022-12-04T05:13:06;11.17;;;8.20;;
16029;SDS011;34770;49.272;11.070;2022-12-04T05:15:33;13.10;;;8.57;;
16029;SDS011;34770;49.272;11.070;2022-12-04T05:17:58;11.10;;;8.73;;
16029;SDS011;34770;49.272;11.070;2022-12-04T05:20:24;12.67;;;8.87;;
16029;SDS011;34770;49.272;11.070;2022-12-04T05:22:49;9.83;;;7.63;;
16029;SDS011;34770;49.272;11.070;2022-12-04T05:25:15;11.33;;;8.53;;
16029;SDS011;34770;49.272;11.070;2022-12-04T05:27:40;14.67;;;9.17;;
16029;SDS011;34770;49.272;11.070;2022-12-04T05:30:06;12.17;;;8.20;;
16029;SDS011;34770;49.272;11.070;2022-12-04T05:32:31;11.23;;;8.03;;
16029;SDS011;34770;49.272;11.070;2022-12-04T05:34:57;12.33;;;8.37;;
16029;SDS011;34770;49.272;11.070;2022-12-04T05:37:23;10.57;;;7.93;;
16029;SDS011;34770;49.272;11.070;2022-12-04T05:39:49;12.80;;;8.83;;
16029;SDS011;34770;49.272;11.070;2022-12-04T05:42:15;10.97;;;7.87;;
16029;SDS011;34770;49.272;11.070;2022-12-04T05:44:40;13.70;;;8.87;;
16029;SDS011;34770;49.272;11.070;2022-12-04T05:47:06;12.03;;;9.53;;
16029;SDS011;34770;49.272;11.070;2022-12-04T05:49:32;12.17;;;8.37;;
16029;SDS011;34770;49.272;11.070;2022-12-04T05:51:58;14.17;;;8.80;;
16029;SDS011;34770;49.272;11.070;2022-12-04T05:54:24;10.33;;;8.43;;
16029;SDS011;34770;49.272;11.070;2022-12-04T05:56:50;15.83;;;8.73;;
16029;SDS011;34770;49.272;11.070;2022-12-04T05:59:16;13.87;;;8.60;;
16029;SDS011;34770;49.272;11.070;2022-12-04T06:01:42;12.43;;;9.17;;
16029;SDS011;34770;49.272;11.070;2022-12-04T06:04:09;11.07;;;8.23;;
16029;SDS011;34770;49.272;11.070;2022-12-04T06:06:35;13.33;;;8.40;;
16029;SDS011;34770;49.272;11.070;2022-12-04T06:09:01;11.07;;;8.77;;
16029;SDS011;34770;49.272;11.070;2022-12-04T06:11:29;11.17;;;7.37;;
16029;SDS011;34770;49.272;11.070;2022-12-04T06:13:57;11.87;;;8.67;;
16029;SDS011;34770;49.272;11.070;2022-12-04T06:16:25;12.60;;;8.87;;
16029;SDS011;34770;49.272;11.070;2022-12-04T06:18:53;9.67;;;7.93;;
16029;SDS011;34770;49.272;11.070;2022-12-04T06:21:26;12.83;;;9.07;;
16029;SDS011;34770;49.272;11.070;2022-12-04T06:23:53;10.73;;;7.13;;
16029;SDS011;34770;49.272;11.070;2022-12-04T06:26:19;11.80;;;8.73;;
16029;SDS011;34770;49.272;11.070;2022-12-04T06:28:45;10.73;;;8.20;;
16029;SDS011;34770;49.272;11.070;2022-12-04T06:31:12;11.97;;;8.37;;
16029;SDS011;34770;49.272;11.070;2022-12-04T06:33:39;12.87;;;9.33;;
16029;SDS011;34770;49.272;11.070;2022-12-04T06:36:06;13.00;;;9.43;;
16029;SDS011;34770;49.272;11.070;2022-12-04T06:38:34;11.40;;;8.47;;
16029;SDS011;34770;49.272;11.070;2022-12-04T06:41:04;14.53;;;10.03;;
16029;SDS011;34770;49.272;11.070;2022-12-04T06:43:31;14.03;;;9.63;;
16029;SDS011;34770;49.272;11.070;2022-12-04T06:46:01;12.07;;;8.63;;
16029;SDS011;34770;49.272;11.070;2022-12-04T06:48:27;11.87;;;8.57;;
16029;SDS011;34770;49.272;11.070;2022-12-04T06:51:00;12.60;;;9.00;;
16029;SDS011;34770;49.272;11.070;2022-12-04T06:53:27;12.30;;;8.40;;
16029;SDS011;34770;49.272;11.070;2022-12-04T06:55:58;11.00;;;8.60;;
16029;SDS011;34770;49.272;11.070;2022-12-04T06:58:25;10.90;;;7.80;;
16029;SDS011;34770;49.272;11.070;2022-12-04T07:00:51;11.17;;;8.30;;
16029;SDS011;34770;49.272;11.070;2022-12-04T07:03:17;11.87;;;8.07;;
16029;SDS011;34770;49.272;11.070;2022-12-04T07:05:43;11.83;;;8.57;;
16029;SDS011;34770;49.272;11.070;2022-12-04T07:08:08;10.57;;;8.57;;
16029;SDS011;34770;49.272;11.070;2022-12-04T07:10:34;10.30;;;8.43;;
16029;SDS011;34770;49.272;11.070;2022-12-04T07:13:01;12.47;;;8.70;;
16029;SDS011;34770;49.272;11.070;2022-12-04T07:15:28;10.10;;;7.67;;
16029;SDS011;34770;49.272;11.070;2022-12-04T07:17:53;9.50;;;6.97;;
16029;SDS011;34770;49.272;11.070;2022-12-04T07:20:19;11.63;;;7.80;;
16029;SDS011;34770;49.272;11.070;2022-12-04T07:22:44;13.30;;;8.50;;
16029;SDS011;34770;49.272;11.070;2022-12-04T07:25:10;12.97;;;8.63;;
16029;SDS011;34770;49.272;11.070;2022-12-04T07:27:35;11.43;;;8.67;;
16029;SDS011;34770;49.272;11.070;2022-12-04T07:30:01;10.03;;;7.63;;
16029;SDS011;34770;49.272;11.070;2022-12-04T07:32:27;10.67;;;8.13;;
16029;SDS011;34770;49.272;11.070;2022-12-04T07:34:52;11.23;;;9.10;;
16029;SDS011;34770;49.272;11.070;2022-12-04T07:37:17;12.93;;;9.03;;
16029;SDS011;34770;49.272;11.070;2022-12-04T07:39:43;12.67;;;9.10;;
16029;SDS011;34770;49.272;11.070;2022-12-04T07:42:08;13.47;;;8.83;;
16029;SDS011;34770;49.272;11.070;2022-12-04T07:44:34;12.07;;;9.13;;
16029;SDS011;34770;49.272;11.070;2022-12-04T07:46:59;12.80;;;9.63;;
16029;SDS011;34770;49.272;11.070;2022-12-04T07:49:25;13.03;;;8.97;;
16029;SDS011;34770;49.272;11.070;2022-12-04T07:51:51;11.90;;;9.33;;
16029;SDS011;34770;49.272;11.070;2022-12-04T07:54:16;10.67;;;8.43;;
16029;SDS011;34770;49.272;11.070;2022-12-04T07:56:41;12.47;;;9.57;;
16029;SDS011;34770;49.272;11.070;2022-12-04T07:59:07;11.57;;;8.27;;
16029;SDS011;34770;49.272;11.070;2022-12-04T08:01:32;12.20;;;8.27;;
16029;SDS011;34770;49.272;11.070;2022-12-04T08:03:59;11.50;;;8.57;;
16029;SDS011;34770;49.272;11.070;2022-12-04T08:06:27;13.57;;;9.03;;
16029;SDS011;34770;49.272;11.070;2022-12-04T08:08:53;13.30;;;8.63;;
16029;SDS011;34770;49.272;11.070;2022-12-04T08:11:22;14.10;;;9.10;;
16029;SDS011;34770;49.272;11.070;2022-12-04T08:13:52;16.67;;;9.43;;
16029;SDS011;34770;49.272;11.070;2022-12-04T08:16:19;12.57;;;8.43;;
16029;SDS011;34770;49.272;11.070;2022-12-04T08:18:45;12.77;;;7.97;;
16029;SDS011;34770;49.272;11.070;2022-12-04T08:21:13;12.07;;;8.93;;
16029;SDS011;34770;49.272;11.070;2022-12-04T08:26:10;11.73;;;8.27;;
16029;SDS011;34770;49.272;11.070;2022-12-04T08:28:36;11.47;;;8.43;;
16029;SDS011;34770;49.272;11.070;2022-12-04T08:31:03;11.17;;;8.70;;
16029;SDS011;34770;49.272;11.070;2022-12-04T08:33:32;11.77;;;8.63;;
16029;SDS011;34770;49.272;11.070;2022-12-04T08:35:58;12.30;;;8.13;;
16029;SDS011;34770;49.272;11.070;2022-12-04T08:38:24;11.93;;;9.10;;
16029;SDS011;34770;49.272;11.070;2022-12-04T08:40:50;12.30;;;9.00;;
16029;SDS011;34770;49.272;11.070;2022-12-04T08:43:15;10.63;;;8.10;;
16029;SDS011;34770;49.272;11.070;2022-12-04T08:45:41;11.00;;;8.43;;
16029;SDS011;34770;49.272;11.070;2022-12-04T08:48:06;11.93;;;8.70;;
16029;SDS011;34770;49.272;11.070;2022-12-04T08:50:31;10.50;;;8.07;;
16029;SDS011;34770;49.272;11.070;2022-12-04T08:52:57;8.47;;;7.10;;
16029;SDS011;34770;49.272;11.070;2022-12-04T08:55:22;10.27;;;7.83;;
16029;SDS011;34770;49.272;11.070;2022-12-04T08:57:49;10.90;;;8.30;;
16029;SDS011;34770;49.272;11.070;2022-12-04T09:00:16;13.50;;;9.40;;
16029;SDS011;34770;49.272;11.070;2022-12-04T09:02:42;10.17;;;7.60;;
16029;SDS011;34770;49.272;11.070;2022-12-04T09:05:07;10.30;;;7.73;;
16029;SDS011;34770;49.272;11.070;2022-12-04T09:07:33;12.10;;;8.27;;
16029;SDS011;34770;49.272;11.070;2022-12-04T09:09:58;11.33;;;7.80;;
16029;SDS011;34770;49.272;11.070;2022-12-04T09:12:24;11.43;;;8.30;;
16029;SDS011;34770;49.272;11.070;2022-12-04T09:14:49;9.40;;;7.17;;
16029;SDS011;34770;49.272;11.070;2022-12-04T09:17:15;10.37;;;8.30;;
16029;SDS011;34770;49.272;11.070;2022-12-04T09:19:40;13.17;;;8.80;;
16029;SDS011;34770;49.272;11.070;2022-12-04T09:22:05;10.57;;;8.17;;
16029;SDS011;34770;49.272;11.070;2022-12-04T09:24:31;11.00;;;8.00;;
16029;SDS011;34770;49.272;11.070;2022-12-04T09:26:57;9.97;;;7.83;;
16029;SDS011;34770;49.272;11.070;2022-12-04T09:29:22;12.30;;;8.23;;
16029;SDS011;34770;49.272;11.070;2022-12-04T09:31:50;8.70;;;7.03;;
16029;SDS011;34770;49.272;11.070;2022-12-04T09:34:15;10.50;;;8.33;;
16029;SDS011;34770;49.272;11.070;2022-12-04T09:36:41;10.57;;;8.10;;
16029;SDS011;34770;49.272;11.070;2022-12-04T09:39:08;10.60;;;7.30;;
16029;SDS011;34770;49.272;11.070;2022-12-04T09:47:18;7.93;;;6.87;;
16029;SDS011;34770;49.272;11.070;2022-12-04T09:49:49;7.70;;;5.90;;
16029;SDS011;34770;49.272;11.070;2022-12-04T09:54:48;9.60;;;7.73;;
16029;SDS011;34770;49.272;11.070;2022-12-04T09:57:19;10.30;;;7.60;;
16029;SDS011;34770;49.272;11.070;2022-12-04T09:59:49;18.67;;;14.33;;
16029;SDS011;34770;49.272;11.070;2022-12-04T10:04:52;15.80;;;9.10;;
16029;SDS011;34770;49.272;11.070;2022-12-04T10:20:41;10.70;;;8.10;;
16029;SDS011;34770;49.272;11.070;2022-12-04T10:25:41;11.97;;;9.50;;
16029;SDS011;34770;49.272;11.070;2022-12-04T10:30:54;7.83;;;6.17;;
16029;SDS011;34770;49.272;11.070;2022-12-04T10:33:30;8.77;;;7.50;;
16029;SDS011;34770;49.272;11.070;2022-12-04T10:36:00;6.90;;;6.20;;
16029;SDS011;34770;49.272;11.070;2022-12-04T10:38:42;7.77;;;6.47;;
16029;SDS011;34770;49.272;11.070;2022-12-04T10:41:20;9.63;;;7.23;;
16029;SDS011;34770;49.272;11.070;2022-12-04T10:43:53;9.63;;;7.47;;
16029;SDS011;34770;49.272;11.070;2022-12-04T10:46:32;10.00;;;6.60;;
16029;SDS011;34770;49.272;11.070;2022-12-04T10:49:10;8.90;;;7.50;;
16029;SDS011;34770;49.272;11.070;2022-12-04T10:51:44;7.80;;;6.37;;
16029;SDS011;34770;49.272;11.070;2022-12-04T10:57:12;8.40;;;7.30;;
16029;SDS011;34770;49.272;11.070;2022-12-04T10:59:46;8.20;;;7.00;;
16029;SDS011;34770;49.272;11.070;2022-12-04T11:02:23;10.60;;;7.07;;
16029;SDS011;34770;49.272;11.070;2022-12-04T11:04:55;9.20;;;6.57;;
16029;SDS011;34770;49.272;11.070;2022-12-04T11:07:29;9.70;;;8.10;;
16029;SDS011;34770;49.272;11.070;2022-12-04T11:10:05;7.37;;;6.07;;
16029;SDS011;34770;49.272;11.070;2022-12-04T11:12:52;6.90;;;6.20;;
16029;SDS011;34770;49.272;11.070;2022-12-04T11:15:22;8.97;;;7.10;;
16029;SDS011;34770;49.272;11.070;2022-12-04T11:17:48;9.43;;;7.57;;
16029;SDS011;34770;49.272;11.070;2022-12-04T11:20:16;6.83;;;6.13;;
16029;SDS011;34770;49.272;11.070;2022-12-04T11:25:17;8.23;;;6.87;;
16029;SDS011;34770;49.272;11.070;2022-12-04T11:27:45;9.83;;;7.30;;
16029;SDS011;34770;49.272;11.070;2022-12-04T11:30:14;8.23;;;6.87;;
16029;SDS011;34770;49.272;11.070;2022-12-04T11:32:44;6.30;;;5.70;;
16029;SDS011;34770;49.272;11.070;2022-12-04T11:37:41;6.00;;;5.40;;
16029;SDS011;34770;49.272;11.070;2022-12-04T11:40:35;6.40;;;5.73;;
16029;SDS011;34770;49.272;11.070;2022-12-04T11:43:03;6.97;;;6.13;;
16029;SDS011;34770;49.272;11.070;2022-12-04T11:45:31;6.67;;;5.37;;
16029;SDS011;34770;49.272;11.070;2022-12-04T11:47:58;6.27;;;5.20;;
16029;SDS011;34770;49.272;11.070;2022-12-04T11:53:14;6.55;;;5.85;;
16029;SDS011;34770;49.272;11.070;2022-12-04T11:58:26;6.87;;;6.17;;
16029;SDS011;34770;49.272;11.070;2022-12-04T12:01:19;7.93;;;6.63;;
16029;SDS011;34770;49.272;11.070;2022-12-04T12:04:06;8.20;;;5.45;;
16029;SDS011;34770;49.272;11.070;2022-12-04T12:16:11;6.65;;;5.00;;
16029;SDS011;34770;49.272;11.070;2022-12-04T12:24:02;6.88;;;6.00;;
16029;SDS011;34770;49.272;11.070;2022-12-04T12:26:41;7.32;;;5.70;;
16029;SDS011;34770;49.272;11.070;2022-12-04T12:29:32;8.73;;;6.22;;
16029;SDS011;34770;49.272;11.070;2022-12-04T12:32:18;6.50;;;5.82;;
16029;SDS011;34770;49.272;11.070;2022-12-04T12:34:46;6.50;;;5.90;;
16029;SDS011;34770;49.272;11.070;2022-12-04T12:37:20;6.40;;;5.72;;
16029;SDS011;34770;49.272;11.070;2022-12-04T12:42:33;6.43;;;5.80;;
16029;SDS011;34770;49.272;11.070;2022-12-04T12:45:15;6.35;;;5.55;;
16029;SDS011;34770;49.272;11.070;2022-12-04T12:48:14;6.90;;;5.68;;
16029;SDS011;34770;49.272;11.070;2022-12-04T12:50:49;6.13;;;5.30;;
16029;SDS011;34770;49.272;11.070;2022-12-04T12:53:21;7.97;;;6.38;;
16029;SDS011;34770;49.272;11.070;2022-12-04T12:55:54;8.88;;;6.47;;
16029;SDS011;34770;49.272;11.070;2022-12-04T13:01:10;7.80;;;6.18;;
16029;SDS011;34770;49.272;11.070;2022-12-04T13:09:36;8.77;;;6.22;;
16029;SDS011;34770;49.272;11.070;2022-12-04T13:12:03;8.38;;;6.10;;
16029;SDS011;34770;49.272;11.070;2022-12-04T13:14:35;7.15;;;6.45;;
16029;SDS011;34770;49.272;11.070;2022-12-04T13:17:02;6.63;;;5.90;;
16029;SDS011;34770;49.272;11.070;2022-12-04T13:19:36;8.27;;;6.60;;
16029;SDS011;34770;49.272;11.070;2022-12-04T13:27:44;8.60;;;7.13;;
16029;SDS011;34770;49.272;11.070;2022-12-04T13:41:33;9.05;;;5.88;;
16029;SDS011;34770;49.272;11.070;2022-12-04T13:44:10;8.32;;;6.65;;
16029;SDS011;34770;49.272;11.070;2022-12-04T13:46:56;8.52;;;6.78;;
16029;SDS011;34770;49.272;11.070;2022-12-04T13:49:28;9.90;;;7.60;;
16029;SDS011;34770;49.272;11.070;2022-12-04T13:51:58;9.50;;;7.65;;
16029;SDS011;34770;49.272;11.070;2022-12-04T13:54:35;8.07;;;6.53;;
16029;SDS011;34770;49.272;11.070;2022-12-04T13:59:38;9.43;;;7.13;;
16029;SDS011;34770;49.272;11.070;2022-12-04T14:07:39;11.85;;;8.18;;
16029;SDS011;34770;49.272;11.070;2022-12-04T14:12:38;12.57;;;9.07;;
16029;SDS011;34770;49.272;11.070;2022-12-04T14:15:07;9.93;;;8.10;;
16029;SDS011;34770;49.272;11.070;2022-12-04T14:17:45;10.73;;;7.27;;
16029;SDS011;34770;49.272;11.070;2022-12-04T14:20:43;10.07;;;7.60;;
16029;SDS011;34770;49.272;11.070;2022-12-04T14:25:47;10.85;;;8.70;;
16029;SDS011;34770;49.272;11.070;2022-12-04T14:30:57;12.05;;;8.65;;
16029;SDS011;34770;49.272;11.070;2022-12-04T14:33:25;13.25;;;9.30;;
16029;SDS011;34770;49.272;11.070;2022-12-04T14:36:01;11.75;;;8.25;;
16029;SDS011;34770;49.272;11.070;2022-12-04T14:38:29;11.00;;;8.07;;
16029;SDS011;34770;49.272;11.070;2022-12-04T14:40:56;9.52;;;7.90;;
16029;SDS011;34770;49.272;11.070;2022-12-04T14:43:26;10.43;;;7.55;;
16029;SDS011;34770;49.272;11.070;2022-12-04T14:46:08;8.85;;;7.30;;
16029;SDS011;34770;49.272;11.070;2022-12-04T14:54:11;9.45;;;7.50;;
16029;SDS011;34770;49.272;11.070;2022-12-04T14:59:49;10.57;;;9.32;;
16029;SDS011;34770;49.272;11.070;2022-12-04T15:02:18;12.25;;;10.00;;
16029;SDS011;34770;49.272;11.070;2022-12-04T15:04:48;11.85;;;9.35;;
16029;SDS011;34770;49.272;11.070;2022-12-04T15:09:54;9.27;;;6.95;;
16029;SDS011;34770;49.272;11.070;2022-12-04T15:15:23;11.40;;;7.78;;
16029;SDS011;34770;49.272;11.070;2022-12-04T15:17:54;9.18;;;7.78;;
16029;SDS011;34770;49.272;11.070;2022-12-04T15:20:23;10.02;;;7.97;;
16029;SDS011;34770;49.272;11.070;2022-12-04T15:22:50;8.02;;;7.13;;
16029;SDS011;34770;49.272;11.070;2022-12-04T15:25:25;10.68;;;8.57;;
16029;SDS011;34770;49.272;11.070;2022-12-04T15:27:59;11.00;;;7.68;;
16029;SDS011;34770;49.272;11.070;2022-12-04T15:30:30;10.20;;;7.35;;
16029;SDS011;34770;49.272;11.070;2022-12-04T15:32:58;9.25;;;7.78;;
16029;SDS011;34770;49.272;11.070;2022-12-04T15:35:24;10.88;;;8.00;;
16029;SDS011;34770;49.272;11.070;2022-12-04T15:37:55;9.27;;;7.63;;
16029;SDS011;34770;49.272;11.070;2022-12-04T15:40:23;10.15;;;7.40;;
16029;SDS011;34770;49.272;11.070;2022-12-04T15:42:50;10.40;;;8.75;;
16029;SDS011;34770;49.272;11.070;2022-12-04T15:50:19;9.90;;;7.43;;
16029;SDS011;34770;49.272;11.070;2022-12-04T15:52:47;9.52;;;7.25;;
16029;SDS011;34770;49.272;11.070;2022-12-04T15:55:33;11.00;;;7.47;;
16029;SDS011;34770;49.272;11.070;2022-12-04T15:58:20;10.93;;;8.40;;
16029;SDS011;34770;49.272;11.070;2022-12-04T16:00:59;11.00;;;9.52;;
16029;SDS011;34770;49.272;11.070;2022-12-04T16:03:30;9.32;;;7.35;;
16029;SDS011;34770;49.272;11.070;2022-12-04T16:06:02;13.35;;;8.63;;
16029;SDS011;34770;49.272;11.070;2022-12-04T16:08:34;12.68;;;8.25;;
16029;SDS011;34770;49.272;11.070;2022-12-04T16:11:02;9.55;;;8.05;;
16029;SDS011;34770;49.272;11.070;2022-12-04T16:13:34;18.53;;;9.57;;
16029;SDS011;34770;49.272;11.070;2022-12-04T16:16:10;12.65;;;9.13;;
16029;SDS011;34770;49.272;11.070;2022-12-04T16:18:38;12.40;;;9.68;;
16029;SDS011;34770;49.272;11.070;2022-12-04T16:21:04;13.60;;;10.50;;
16029;SDS011;34770;49.272;11.070;2022-12-04T16:23:33;12.57;;;9.27;;
16029;SDS011;34770;49.272;11.070;2022-12-04T16:25:59;11.80;;;8.40;;
16029;SDS011;34770;49.272;11.070;2022-12-04T16:28:24;14.73;;;11.27;;
16029;SDS011;34770;49.272;11.070;2022-12-04T16:30:50;12.10;;;9.70;;
16029;SDS011;34770;49.272;11.070;2022-12-04T16:33:19;13.20;;;9.07;;
16029;SDS011;34770;49.272;11.070;2022-12-04T16:35:44;12.27;;;8.97;;
16029;SDS011;34770;49.272;11.070;2022-12-04T16:38:14;13.60;;;10.77;;
16029;SDS011;34770;49.272;11.070;2022-12-04T16:40:41;16.43;;;10.90;;
16029;SDS011;34770;49.272;11.070;2022-12-04T16:43:09;17.23;;;12.57;;
16029;SDS011;34770;49.272;11.070;2022-12-04T16:45:37;15.87;;;11.90;;
16029;SDS011;34770;49.272;11.070;2022-12-04T16:48:08;31.63;;;19.13;;
16029;SDS011;34770;49.272;11.070;2022-12-04T16:50:34;16.27;;;11.97;;
16029;SDS011;34770;49.272;11.070;2022-12-04T16:53:00;14.77;;;11.13;;
16029;SDS011;34770;49.272;11.070;2022-12-04T16:55:35;15.20;;;11.80;;
16029;SDS011;34770;49.272;11.070;2022-12-04T16:58:03;16.63;;;11.03;;
16029;SDS011;34770;49.272;11.070;2022-12-04T17:00:30;17.70;;;13.43;;
16029;SDS011;34770;49.272;11.070;2022-12-04T17:02:55;17.60;;;11.73;;
16029;SDS011;34770;49.272;11.070;2022-12-04T17:05:26;15.10;;;11.73;;
16029;SDS011;34770;49.272;11.070;2022-12-04T17:07:53;18.00;;;11.37;;
16029;SDS011;34770;49.272;11.070;2022-12-04T17:10:20;17.58;;;11.05;;
16029;SDS011;34770;49.272;11.070;2022-12-04T17:12:46;13.70;;;10.48;;